sensor_id;sensor_type;location;lat;lon;timestamp;P1;durP1;ratioP1;P2;durP2;ratioP2
54197;SDS011;40105;52.366;17.000;2023-04-09T00:00:59;45.90;;;21.92;;
54197;SDS011;40105;52.366;17.000;2023-04-09T00:03:25;47.63;;;21.33;;
54197;SDS011;40105;52.366;17.000;2023-04-09T00:05:50;44.70;;;21.63;;
54197;SDS011;40105;52.366;17.000;2023-04-09T00:08:15;45.23;;;21.10;;
54197;SDS011;40105;52.366;17.000;2023-04-09T00:10:40;53.77;;;21.80;;
54197;SDS011;40105;52.366;17.000;2023-04-09T00:13:05;47.80;;;22.23;;
54197;SDS011;40105;52.366;17.000;2023-04-09T00:15:31;46.93;;;22.30;;
54197;SDS011;40105;52.366;17.000;2023-04-09T00:17:56;41.67;;;21.10;;
54197;SDS011;40105;52.366;17.000;2023-04-09T00:20:21;43.43;;;20.63;;
54197;SDS011;40105;52.366;17.000;2023-04-09T00:22:46;45.87;;;21.83;;
54197;SDS011;40105;52.366;17.000;2023-04-09T00:25:12;50.67;;;25.33;;
54197;SDS011;40105;52.366;17.000;2023-04-09T00:27:37;54.43;;;23.23;;
54197;SDS011;40105;52.366;17.000;2023-04-09T00:30:02;43.50;;;20.43;;
54197;SDS011;40105;52.366;17.000;2023-04-09T00:32:28;46.60;;;23.52;;
54197;SDS011;40105;52.366;17.000;2023-04-09T00:34:53;47.88;;;21.83;;
54197;SDS011;40105;52.366;17.000;2023-04-09T00:37:18;50.47;;;22.92;;
54197;SDS011;40105;52.366;17.000;2023-04-09T00:39:43;41.10;;;20.27;;
54197;SDS011;40105;52.366;17.000;2023-04-09T00:42:08;48.03;;;21.67;;
54197;SDS011;40105;52.366;17.000;2023-04-09T00:44:34;42.95;;;20.83;;
54197;SDS011;40105;52.366;17.000;2023-04-09T00:46:59;40.85;;;20.58;;
54197;SDS011;40105;52.366;17.000;2023-04-09T00:49:25;47.10;;;21.83;;
54197;SDS011;40105;52.366;17.000;2023-04-09T00:51:50;48.38;;;21.83;;
54197;SDS011;40105;52.366;17.000;2023-04-09T00:54:16;47.88;;;21.73;;
54197;SDS011;40105;52.366;17.000;2023-04-09T00:56:41;43.47;;;21.47;;
54197;SDS011;40105;52.366;17.000;2023-04-09T00:59:06;48.72;;;21.45;;
54197;SDS011;40105;52.366;17.000;2023-04-09T01:01:32;42.90;;;21.63;;
54197;SDS011;40105;52.366;17.000;2023-04-09T01:03:57;46.90;;;21.23;;
54197;SDS011;40105;52.366;17.000;2023-04-09T01:06:40;41.57;;;20.73;;
54197;SDS011;40105;52.366;17.000;2023-04-09T01:11:37;38.72;;;20.52;;
54197;SDS011;40105;52.366;17.000;2023-04-09T01:14:07;43.17;;;20.07;;
54197;SDS011;40105;52.366;17.000;2023-04-09T01:16:36;43.08;;;20.58;;
54197;SDS011;40105;52.366;17.000;2023-04-09T01:19:05;43.88;;;20.70;;
54197;SDS011;40105;52.366;17.000;2023-04-09T01:21:33;47.10;;;20.55;;
54197;SDS011;40105;52.366;17.000;2023-04-09T01:29:08;45.33;;;21.95;;
54197;SDS011;40105;52.366;17.000;2023-04-09T01:31:37;44.90;;;20.30;;
54197;SDS011;40105;52.366;17.000;2023-04-09T01:34:03;43.55;;;20.23;;
54197;SDS011;40105;52.366;17.000;2023-04-09T01:36:29;43.10;;;22.40;;
54197;SDS011;40105;52.366;17.000;2023-04-09T01:38:55;43.53;;;22.02;;
54197;SDS011;40105;52.366;17.000;2023-04-09T01:41:21;45.10;;;22.35;;
54197;SDS011;40105;52.366;17.000;2023-04-09T01:43:47;47.90;;;20.83;;
54197;SDS011;40105;52.366;17.000;2023-04-09T01:46:13;39.75;;;20.58;;
54197;SDS011;40105;52.366;17.000;2023-04-09T01:48:39;46.47;;;20.50;;
54197;SDS011;40105;52.366;17.000;2023-04-09T01:51:04;48.50;;;20.48;;
54197;SDS011;40105;52.366;17.000;2023-04-09T01:53:30;38.35;;;21.65;;
54197;SDS011;40105;52.366;17.000;2023-04-09T01:55:55;39.80;;;21.30;;
54197;SDS011;40105;52.366;17.000;2023-04-09T01:58:20;42.40;;;20.52;;
54197;SDS011;40105;52.366;17.000;2023-04-09T02:00:46;45.40;;;20.25;;
54197;SDS011;40105;52.366;17.000;2023-04-09T02:03:22;40.33;;;20.60;;
54197;SDS011;40105;52.366;17.000;2023-04-09T02:08:36;43.85;;;21.13;;
54197;SDS011;40105;52.366;17.000;2023-04-09T02:11:02;44.85;;;20.88;;
54197;SDS011;40105;52.366;17.000;2023-04-09T02:13:28;43.47;;;21.58;;
54197;SDS011;40105;52.366;17.000;2023-04-09T02:15:54;46.63;;;21.52;;
54197;SDS011;40105;52.366;17.000;2023-04-09T02:18:21;40.25;;;21.27;;
54197;SDS011;40105;52.366;17.000;2023-04-09T02:20:46;47.78;;;21.75;;
54197;SDS011;40105;52.366;17.000;2023-04-09T02:23:11;42.00;;;19.90;;
54197;SDS011;40105;52.366;17.000;2023-04-09T02:25:36;54.15;;;22.83;;
54197;SDS011;40105;52.366;17.000;2023-04-09T02:28:01;44.20;;;21.33;;
54197;SDS011;40105;52.366;17.000;2023-04-09T02:30:27;44.07;;;23.00;;
54197;SDS011;40105;52.366;17.000;2023-04-09T02:32:52;48.22;;;20.83;;
54197;SDS011;40105;52.366;17.000;2023-04-09T02:35:17;39.70;;;20.33;;
54197;SDS011;40105;52.366;17.000;2023-04-09T02:37:42;47.13;;;23.13;;
54197;SDS011;40105;52.366;17.000;2023-04-09T02:40:07;42.63;;;22.53;;
54197;SDS011;40105;52.366;17.000;2023-04-09T02:42:33;48.38;;;23.15;;
54197;SDS011;40105;52.366;17.000;2023-04-09T02:44:58;47.07;;;20.40;;
54197;SDS011;40105;52.366;17.000;2023-04-09T02:47:23;42.97;;;20.20;;
54197;SDS011;40105;52.366;17.000;2023-04-09T02:49:50;45.38;;;20.73;;
54197;SDS011;40105;52.366;17.000;2023-04-09T02:52:15;48.73;;;21.23;;
54197;SDS011;40105;52.366;17.000;2023-04-09T02:54:40;49.03;;;22.17;;
54197;SDS011;40105;52.366;17.000;2023-04-09T02:57:06;48.60;;;23.57;;
54197;SDS011;40105;52.366;17.000;2023-04-09T02:59:31;55.20;;;22.57;;
54197;SDS011;40105;52.366;17.000;2023-04-09T03:01:57;46.95;;;21.55;;
54197;SDS011;40105;52.366;17.000;2023-04-09T03:04:22;46.60;;;21.60;;
54197;SDS011;40105;52.366;17.000;2023-04-09T03:06:48;41.30;;;21.93;;
54197;SDS011;40105;52.366;17.000;2023-04-09T03:09:14;54.83;;;23.02;;
54197;SDS011;40105;52.366;17.000;2023-04-09T03:11:39;43.03;;;20.03;;
54197;SDS011;40105;52.366;17.000;2023-04-09T03:14:04;46.00;;;21.53;;
54197;SDS011;40105;52.366;17.000;2023-04-09T03:16:29;49.42;;;22.75;;
54197;SDS011;40105;52.366;17.000;2023-04-09T03:18:55;41.72;;;20.27;;
54197;SDS011;40105;52.366;17.000;2023-04-09T03:21:20;50.97;;;20.60;;
54197;SDS011;40105;52.366;17.000;2023-04-09T03:23:45;52.97;;;21.93;;
54197;SDS011;40105;52.366;17.000;2023-04-09T03:26:10;44.07;;;22.50;;
54197;SDS011;40105;52.366;17.000;2023-04-09T03:28:35;45.83;;;21.60;;
54197;SDS011;40105;52.366;17.000;2023-04-09T03:31:01;52.40;;;20.90;;
54197;SDS011;40105;52.366;17.000;2023-04-09T03:33:26;47.40;;;22.73;;
54197;SDS011;40105;52.366;17.000;2023-04-09T03:35:51;43.00;;;22.17;;
54197;SDS011;40105;52.366;17.000;2023-04-09T03:38:16;50.77;;;22.93;;
54197;SDS011;40105;52.366;17.000;2023-04-09T03:40:41;50.17;;;20.67;;
54197;SDS011;40105;52.366;17.000;2023-04-09T03:43:06;49.93;;;23.57;;
54197;SDS011;40105;52.366;17.000;2023-04-09T03:45:32;47.73;;;22.50;;
54197;SDS011;40105;52.366;17.000;2023-04-09T03:47:57;52.87;;;22.90;;
54197;SDS011;40105;52.366;17.000;2023-04-09T03:50:22;44.77;;;21.17;;
54197;SDS011;40105;52.366;17.000;2023-04-09T03:52:47;46.40;;;21.37;;
54197;SDS011;40105;52.366;17.000;2023-04-09T03:55:12;51.33;;;21.87;;
54197;SDS011;40105;52.366;17.000;2023-04-09T03:57:37;48.77;;;21.20;;
54197;SDS011;40105;52.366;17.000;2023-04-09T04:00:03;47.77;;;20.87;;
54197;SDS011;40105;52.366;17.000;2023-04-09T04:02:28;44.63;;;21.27;;
54197;SDS011;40105;52.366;17.000;2023-04-09T04:04:57;45.08;;;22.00;;
54197;SDS011;40105;52.366;17.000;2023-04-09T04:07:22;55.00;;;22.10;;
54197;SDS011;40105;52.366;17.000;2023-04-09T04:09:47;48.07;;;22.10;;
54197;SDS011;40105;52.366;17.000;2023-04-09T04:12:12;56.17;;;21.60;;
54197;SDS011;40105;52.366;17.000;2023-04-09T04:14:37;46.93;;;22.80;;
54197;SDS011;40105;52.366;17.000;2023-04-09T04:17:03;53.93;;;22.77;;
54197;SDS011;40105;52.366;17.000;2023-04-09T04:19:28;41.10;;;21.13;;
54197;SDS011;40105;52.366;17.000;2023-04-09T04:21:53;43.85;;;21.25;;
54197;SDS011;40105;52.366;17.000;2023-04-09T04:24:18;53.20;;;22.40;;
54197;SDS011;40105;52.366;17.000;2023-04-09T04:26:43;44.80;;;19.17;;
54197;SDS011;40105;52.366;17.000;2023-04-09T04:29:08;41.90;;;21.73;;
54197;SDS011;40105;52.366;17.000;2023-04-09T04:31:34;47.97;;;22.60;;
54197;SDS011;40105;52.366;17.000;2023-04-09T04:33:59;41.22;;;20.95;;
54197;SDS011;40105;52.366;17.000;2023-04-09T04:36:24;56.58;;;25.25;;
54197;SDS011;40105;52.366;17.000;2023-04-09T04:38:50;49.20;;;23.10;;
54197;SDS011;40105;52.366;17.000;2023-04-09T04:41:15;48.60;;;22.00;;
54197;SDS011;40105;52.366;17.000;2023-04-09T04:43:40;43.67;;;21.87;;
54197;SDS011;40105;52.366;17.000;2023-04-09T04:46:05;49.83;;;22.13;;
54197;SDS011;40105;52.366;17.000;2023-04-09T04:48:30;51.47;;;22.40;;
54197;SDS011;40105;52.366;17.000;2023-04-09T04:50:56;57.53;;;23.52;;
54197;SDS011;40105;52.366;17.000;2023-04-09T04:53:21;50.60;;;21.77;;
54197;SDS011;40105;52.366;17.000;2023-04-09T04:55:47;53.23;;;23.23;;
54197;SDS011;40105;52.366;17.000;2023-04-09T04:58:12;51.37;;;22.47;;
54197;SDS011;40105;52.366;17.000;2023-04-09T05:00:37;45.17;;;20.17;;
54197;SDS011;40105;52.366;17.000;2023-04-09T05:03:02;59.77;;;23.17;;
54197;SDS011;40105;52.366;17.000;2023-04-09T05:05:27;44.80;;;22.17;;
54197;SDS011;40105;52.366;17.000;2023-04-09T05:07:52;43.60;;;21.23;;
54197;SDS011;40105;52.366;17.000;2023-04-09T05:10:18;48.37;;;22.67;;
54197;SDS011;40105;52.366;17.000;2023-04-09T05:12:43;48.77;;;21.83;;
54197;SDS011;40105;52.366;17.000;2023-04-09T05:15:08;50.17;;;20.97;;
54197;SDS011;40105;52.366;17.000;2023-04-09T05:17:33;52.33;;;21.70;;
54197;SDS011;40105;52.366;17.000;2023-04-09T05:19:58;49.47;;;22.60;;
54197;SDS011;40105;52.366;17.000;2023-04-09T05:22:23;41.77;;;21.13;;
54197;SDS011;40105;52.366;17.000;2023-04-09T05:24:49;52.63;;;22.50;;
54197;SDS011;40105;52.366;17.000;2023-04-09T05:27:14;51.33;;;24.23;;
54197;SDS011;40105;52.366;17.000;2023-04-09T05:29:39;50.53;;;21.38;;
54197;SDS011;40105;52.366;17.000;2023-04-09T05:32:04;57.72;;;22.13;;
54197;SDS011;40105;52.366;17.000;2023-04-09T05:34:30;54.10;;;22.27;;
54197;SDS011;40105;52.366;17.000;2023-04-09T05:36:56;54.33;;;24.20;;
54197;SDS011;40105;52.366;17.000;2023-04-09T05:39:21;50.77;;;22.40;;
54197;SDS011;40105;52.366;17.000;2023-04-09T05:41:46;47.73;;;21.23;;
54197;SDS011;40105;52.366;17.000;2023-04-09T05:44:11;55.33;;;23.13;;
54197;SDS011;40105;52.366;17.000;2023-04-09T05:46:36;57.90;;;23.80;;
54197;SDS011;40105;52.366;17.000;2023-04-09T05:49:02;48.88;;;23.45;;
54197;SDS011;40105;52.366;17.000;2023-04-09T05:51:27;53.60;;;24.33;;
54197;SDS011;40105;52.366;17.000;2023-04-09T05:53:52;50.03;;;21.17;;
54197;SDS011;40105;52.366;17.000;2023-04-09T05:56:17;54.22;;;24.65;;
54197;SDS011;40105;52.366;17.000;2023-04-09T05:58:43;58.55;;;24.08;;
54197;SDS011;40105;52.366;17.000;2023-04-09T06:01:08;55.90;;;23.13;;
54197;SDS011;40105;52.366;17.000;2023-04-09T06:03:34;55.63;;;23.98;;
54197;SDS011;40105;52.366;17.000;2023-04-09T06:05:59;49.20;;;21.27;;
54197;SDS011;40105;52.366;17.000;2023-04-09T06:08:24;60.77;;;25.07;;
54197;SDS011;40105;52.366;17.000;2023-04-09T06:10:49;54.87;;;25.57;;
54197;SDS011;40105;52.366;17.000;2023-04-09T06:13:14;57.10;;;22.80;;
54197;SDS011;40105;52.366;17.000;2023-04-09T06:15:40;49.97;;;22.10;;
54197;SDS011;40105;52.366;17.000;2023-04-09T06:18:05;57.72;;;24.45;;
54197;SDS011;40105;52.366;17.000;2023-04-09T06:20:30;66.23;;;25.93;;
54197;SDS011;40105;52.366;17.000;2023-04-09T06:22:55;55.90;;;23.97;;
54197;SDS011;40105;52.366;17.000;2023-04-09T06:25:21;56.23;;;23.80;;
54197;SDS011;40105;52.366;17.000;2023-04-09T06:27:46;52.57;;;23.70;;
54197;SDS011;40105;52.366;17.000;2023-04-09T06:30:11;50.93;;;21.50;;
54197;SDS011;40105;52.366;17.000;2023-04-09T06:32:36;51.15;;;22.02;;
54197;SDS011;40105;52.366;17.000;2023-04-09T06:35:03;41.35;;;18.48;;
54197;SDS011;40105;52.366;17.000;2023-04-09T06:37:28;55.78;;;23.50;;
54197;SDS011;40105;52.366;17.000;2023-04-09T06:39:53;52.78;;;23.55;;
54197;SDS011;40105;52.366;17.000;2023-04-09T06:42:18;78.33;;;28.40;;
54197;SDS011;40105;52.366;17.000;2023-04-09T06:44:43;59.10;;;23.20;;
54197;SDS011;40105;52.366;17.000;2023-04-09T06:47:09;57.58;;;22.25;;
54197;SDS011;40105;52.366;17.000;2023-04-09T06:49:34;54.57;;;21.47;;
54197;SDS011;40105;52.366;17.000;2023-04-09T06:51:59;64.70;;;24.70;;
54197;SDS011;40105;52.366;17.000;2023-04-09T06:54:25;70.45;;;28.35;;
54197;SDS011;40105;52.366;17.000;2023-04-09T06:56:50;70.00;;;26.57;;
54197;SDS011;40105;52.366;17.000;2023-04-09T06:59:15;92.80;;;33.53;;
54197;SDS011;40105;52.366;17.000;2023-04-09T07:01:41;103.63;;;39.47;;
54197;SDS011;40105;52.366;17.000;2023-04-09T07:04:07;62.70;;;27.23;;
54197;SDS011;40105;52.366;17.000;2023-04-09T07:06:32;71.47;;;26.40;;
54197;SDS011;40105;52.366;17.000;2023-04-09T07:08:57;64.83;;;25.77;;
54197;SDS011;40105;52.366;17.000;2023-04-09T07:11:22;63.33;;;26.77;;
54197;SDS011;40105;52.366;17.000;2023-04-09T07:13:47;71.67;;;27.20;;
54197;SDS011;40105;52.366;17.000;2023-04-09T07:16:12;69.37;;;25.77;;
54197;SDS011;40105;52.366;17.000;2023-04-09T07:18:38;69.03;;;27.35;;
54197;SDS011;40105;52.366;17.000;2023-04-09T07:21:03;62.80;;;25.00;;
54197;SDS011;40105;52.366;17.000;2023-04-09T07:23:28;67.43;;;24.07;;
54197;SDS011;40105;52.366;17.000;2023-04-09T07:25:53;75.03;;;27.33;;
54197;SDS011;40105;52.366;17.000;2023-04-09T07:28:18;70.13;;;26.80;;
54197;SDS011;40105;52.366;17.000;2023-04-09T07:30:43;71.90;;;28.30;;
54197;SDS011;40105;52.366;17.000;2023-04-09T07:33:10;69.70;;;27.25;;
54197;SDS011;40105;52.366;17.000;2023-04-09T07:35:36;66.27;;;26.37;;
54197;SDS011;40105;52.366;17.000;2023-04-09T07:38:01;63.53;;;26.13;;
54197;SDS011;40105;52.366;17.000;2023-04-09T07:40:26;61.80;;;28.30;;
54197;SDS011;40105;52.366;17.000;2023-04-09T07:42:51;73.60;;;28.03;;
54197;SDS011;40105;52.366;17.000;2023-04-09T07:45:17;70.55;;;29.38;;
54197;SDS011;40105;52.366;17.000;2023-04-09T07:47:43;63.00;;;25.60;;
54197;SDS011;40105;52.366;17.000;2023-04-09T07:50:08;73.27;;;29.57;;
54197;SDS011;40105;52.366;17.000;2023-04-09T07:52:33;73.13;;;27.50;;
54197;SDS011;40105;52.366;17.000;2023-04-09T07:54:58;69.73;;;27.47;;
54197;SDS011;40105;52.366;17.000;2023-04-09T07:57:24;68.80;;;28.88;;
54197;SDS011;40105;52.366;17.000;2023-04-09T07:59:49;77.53;;;29.10;;
54197;SDS011;40105;52.366;17.000;2023-04-09T08:02:14;84.05;;;30.08;;
54197;SDS011;40105;52.366;17.000;2023-04-09T08:04:40;80.97;;;28.13;;
54197;SDS011;40105;52.366;17.000;2023-04-09T08:07:05;68.88;;;28.20;;
54197;SDS011;40105;52.366;17.000;2023-04-09T08:09:30;78.82;;;27.67;;
54197;SDS011;40105;52.366;17.000;2023-04-09T08:11:55;67.77;;;26.87;;
54197;SDS011;40105;52.366;17.000;2023-04-09T08:14:21;76.85;;;30.10;;
54197;SDS011;40105;52.366;17.000;2023-04-09T08:16:46;79.90;;;32.20;;
54197;SDS011;40105;52.366;17.000;2023-04-09T08:19:12;69.95;;;28.95;;
54197;SDS011;40105;52.366;17.000;2023-04-09T08:21:37;75.18;;;28.70;;
54197;SDS011;40105;52.366;17.000;2023-04-09T08:24:03;73.47;;;30.55;;
54197;SDS011;40105;52.366;17.000;2023-04-09T08:26:29;75.47;;;29.73;;
54197;SDS011;40105;52.366;17.000;2023-04-09T08:28:55;80.03;;;28.83;;
54197;SDS011;40105;52.366;17.000;2023-04-09T08:31:20;67.68;;;29.70;;
54197;SDS011;40105;52.366;17.000;2023-04-09T08:33:45;70.07;;;28.50;;
54197;SDS011;40105;52.366;17.000;2023-04-09T08:36:11;59.42;;;25.35;;
54197;SDS011;40105;52.366;17.000;2023-04-09T08:38:36;68.18;;;27.58;;
54197;SDS011;40105;52.366;17.000;2023-04-09T08:41:01;57.67;;;21.97;;
54197;SDS011;40105;52.366;17.000;2023-04-09T08:43:26;72.93;;;25.13;;
54197;SDS011;40105;52.366;17.000;2023-04-09T08:45:52;49.42;;;23.63;;
54197;SDS011;40105;52.366;17.000;2023-04-09T08:48:21;49.38;;;20.15;;
54197;SDS011;40105;52.366;17.000;2023-04-09T08:50:47;59.30;;;21.65;;
54197;SDS011;40105;52.366;17.000;2023-04-09T08:53:12;47.23;;;22.23;;
54197;SDS011;40105;52.366;17.000;2023-04-09T08:55:39;50.47;;;22.02;;
54197;SDS011;40105;52.366;17.000;2023-04-09T08:58:05;54.23;;;22.37;;
54197;SDS011;40105;52.366;17.000;2023-04-09T09:00:31;47.78;;;20.50;;
54197;SDS011;40105;52.366;17.000;2023-04-09T09:03:00;49.00;;;21.23;;
54197;SDS011;40105;52.366;17.000;2023-04-09T09:05:41;50.03;;;22.13;;
54197;SDS011;40105;52.366;17.000;2023-04-09T09:08:10;52.67;;;21.50;;
54197;SDS011;40105;52.366;17.000;2023-04-09T09:10:36;53.78;;;21.50;;
54197;SDS011;40105;52.366;17.000;2023-04-09T09:13:03;50.58;;;21.95;;
54197;SDS011;40105;52.366;17.000;2023-04-09T09:15:39;54.20;;;23.98;;
54197;SDS011;40105;52.366;17.000;2023-04-09T09:18:05;53.97;;;24.27;;
54197;SDS011;40105;52.366;17.000;2023-04-09T09:20:31;56.17;;;22.23;;
54197;SDS011;40105;52.366;17.000;2023-04-09T09:22:56;66.95;;;25.25;;
54197;SDS011;40105;52.366;17.000;2023-04-09T09:25:22;50.90;;;21.20;;
54197;SDS011;40105;52.366;17.000;2023-04-09T09:27:48;51.13;;;22.42;;
54197;SDS011;40105;52.366;17.000;2023-04-09T09:30:23;43.90;;;20.02;;
54197;SDS011;40105;52.366;17.000;2023-04-09T09:32:52;47.17;;;22.15;;
54197;SDS011;40105;52.366;17.000;2023-04-09T09:35:18;53.53;;;21.60;;
54197;SDS011;40105;52.366;17.000;2023-04-09T09:37:44;44.00;;;21.08;;
54197;SDS011;40105;52.366;17.000;2023-04-09T09:40:09;50.97;;;21.07;;
54197;SDS011;40105;52.366;17.000;2023-04-09T09:42:34;49.13;;;19.73;;
54197;SDS011;40105;52.366;17.000;2023-04-09T09:45:00;47.10;;;21.70;;
54197;SDS011;40105;52.366;17.000;2023-04-09T09:47:25;40.08;;;19.73;;
54197;SDS011;40105;52.366;17.000;2023-04-09T09:49:53;45.97;;;20.20;;
54197;SDS011;40105;52.366;17.000;2023-04-09T09:52:20;36.30;;;18.80;;
54197;SDS011;40105;52.366;17.000;2023-04-09T09:54:47;43.65;;;18.38;;
54197;SDS011;40105;52.366;17.000;2023-04-09T09:57:12;56.72;;;24.50;;
54197;SDS011;40105;52.366;17.000;2023-04-09T09:59:39;43.40;;;18.33;;
54197;SDS011;40105;52.366;17.000;2023-04-09T10:02:05;41.53;;;20.13;;
54197;SDS011;40105;52.366;17.000;2023-04-09T10:04:33;43.90;;;20.45;;
54197;SDS011;40105;52.366;17.000;2023-04-09T10:06:59;40.13;;;17.33;;
54197;SDS011;40105;52.366;17.000;2023-04-09T10:09:26;47.88;;;18.05;;
54197;SDS011;40105;52.366;17.000;2023-04-09T10:11:51;43.17;;;18.17;;
54197;SDS011;40105;52.366;17.000;2023-04-09T10:14:17;42.53;;;19.88;;
54197;SDS011;40105;52.366;17.000;2023-04-09T10:16:43;42.53;;;18.63;;
54197;SDS011;40105;52.366;17.000;2023-04-09T10:19:08;44.47;;;19.73;;
54197;SDS011;40105;52.366;17.000;2023-04-09T10:21:50;43.65;;;18.77;;
54197;SDS011;40105;52.366;17.000;2023-04-09T10:24:17;54.47;;;21.10;;
54197;SDS011;40105;52.366;17.000;2023-04-09T10:26:42;41.33;;;19.60;;
54197;SDS011;40105;52.366;17.000;2023-04-09T10:29:12;38.53;;;19.15;;
54197;SDS011;40105;52.366;17.000;2023-04-09T10:34:09;34.58;;;17.85;;
54197;SDS011;40105;52.366;17.000;2023-04-09T10:36:34;46.37;;;19.87;;
54197;SDS011;40105;52.366;17.000;2023-04-09T10:39:00;55.03;;;20.48;;
54197;SDS011;40105;52.366;17.000;2023-04-09T10:41:35;43.90;;;19.13;;
54197;SDS011;40105;52.366;17.000;2023-04-09T10:44:00;38.27;;;18.37;;
54197;SDS011;40105;52.366;17.000;2023-04-09T10:46:31;37.38;;;17.67;;
54197;SDS011;40105;52.366;17.000;2023-04-09T10:49:17;43.00;;;19.17;;
54197;SDS011;40105;52.366;17.000;2023-04-09T10:51:52;36.95;;;17.85;;
54197;SDS011;40105;52.366;17.000;2023-04-09T10:59:39;34.30;;;14.15;;
54197;SDS011;40105;52.366;17.000;2023-04-09T11:02:06;35.78;;;16.75;;
54197;SDS011;40105;52.366;17.000;2023-04-09T11:05:15;37.28;;;16.48;;
54197;SDS011;40105;52.366;17.000;2023-04-09T11:07:19;30.90;;;16.50;;
54197;SDS011;40105;52.366;17.000;2023-04-09T11:09:46;33.80;;;13.60;;
54197;SDS011;40105;52.366;17.000;2023-04-09T11:12:11;26.80;;;13.75;;
54197;SDS011;40105;52.366;17.000;2023-04-09T11:14:36;33.53;;;14.87;;
54197;SDS011;40105;52.366;17.000;2023-04-09T11:17:02;37.53;;;16.13;;
54197;SDS011;40105;52.366;17.000;2023-04-09T11:19:27;26.02;;;12.95;;
54197;SDS011;40105;52.366;17.000;2023-04-09T11:21:52;30.43;;;16.83;;
54197;SDS011;40105;52.366;17.000;2023-04-09T11:24:17;26.93;;;12.63;;
54197;SDS011;40105;52.366;17.000;2023-04-09T11:26:42;23.65;;;12.25;;
54197;SDS011;40105;52.366;17.000;2023-04-09T11:29:08;22.67;;;12.40;;
54197;SDS011;40105;52.366;17.000;2023-04-09T11:31:33;19.17;;;11.17;;
54197;SDS011;40105;52.366;17.000;2023-04-09T11:33:59;18.73;;;12.18;;
54197;SDS011;40105;52.366;17.000;2023-04-09T11:36:24;22.00;;;10.90;;
54197;SDS011;40105;52.366;17.000;2023-04-09T11:38:51;23.80;;;11.70;;
54197;SDS011;40105;52.366;17.000;2023-04-09T11:41:16;16.02;;;9.35;;
54197;SDS011;40105;52.366;17.000;2023-04-09T11:43:42;21.13;;;11.57;;
54197;SDS011;40105;52.366;17.000;2023-04-09T11:46:07;20.13;;;10.83;;
54197;SDS011;40105;52.366;17.000;2023-04-09T11:48:33;19.90;;;11.63;;
54197;SDS011;40105;52.366;17.000;2023-04-09T11:50:58;19.80;;;10.52;;
54197;SDS011;40105;52.366;17.000;2023-04-09T11:53:26;19.02;;;10.68;;
54197;SDS011;40105;52.366;17.000;2023-04-09T11:55:53;19.20;;;11.13;;
54197;SDS011;40105;52.366;17.000;2023-04-09T11:58:23;20.17;;;11.07;;
54197;SDS011;40105;52.366;17.000;2023-04-09T12:00:52;21.40;;;10.75;;
54197;SDS011;40105;52.366;17.000;2023-04-09T12:03:24;21.63;;;10.95;;
54197;SDS011;40105;52.366;17.000;2023-04-09T12:05:51;19.45;;;10.98;;
54197;SDS011;40105;52.366;17.000;2023-04-09T12:08:16;24.02;;;11.40;;
54197;SDS011;40105;52.366;17.000;2023-04-09T12:10:46;27.17;;;11.75;;
54197;SDS011;40105;52.366;17.000;2023-04-09T12:13:11;18.17;;;10.83;;
54197;SDS011;40105;52.366;17.000;2023-04-09T12:15:38;21.08;;;11.52;;
54197;SDS011;40105;52.366;17.000;2023-04-09T12:18:11;23.67;;;12.07;;
54197;SDS011;40105;52.366;17.000;2023-04-09T12:20:37;20.25;;;10.27;;
54197;SDS011;40105;52.366;17.000;2023-04-09T12:23:04;20.13;;;10.60;;
54197;SDS011;40105;52.366;17.000;2023-04-09T12:25:33;17.85;;;9.40;;
54197;SDS011;40105;52.366;17.000;2023-04-09T12:27:59;16.17;;;9.13;;
54197;SDS011;40105;52.366;17.000;2023-04-09T12:30:24;18.27;;;9.90;;
54197;SDS011;40105;52.366;17.000;2023-04-09T12:32:50;23.10;;;11.93;;
54197;SDS011;40105;52.366;17.000;2023-04-09T12:35:15;20.08;;;10.88;;
54197;SDS011;40105;52.366;17.000;2023-04-09T12:37:41;20.07;;;10.40;;
54197;SDS011;40105;52.366;17.000;2023-04-09T12:40:07;19.90;;;10.98;;
54197;SDS011;40105;52.366;17.000;2023-04-09T12:42:32;19.63;;;11.77;;
54197;SDS011;40105;52.366;17.000;2023-04-09T12:44:57;18.07;;;10.27;;
54197;SDS011;40105;52.366;17.000;2023-04-09T12:47:22;20.23;;;11.20;;
54197;SDS011;40105;52.366;17.000;2023-04-09T12:49:47;26.67;;;11.43;;
54197;SDS011;40105;52.366;17.000;2023-04-09T12:52:14;23.30;;;12.07;;
54197;SDS011;40105;52.366;17.000;2023-04-09T12:54:39;31.48;;;15.05;;
54197;SDS011;40105;52.366;17.000;2023-04-09T12:57:05;25.42;;;12.68;;
54197;SDS011;40105;52.366;17.000;2023-04-09T12:59:30;21.40;;;11.07;;
54197;SDS011;40105;52.366;17.000;2023-04-09T13:01:55;19.47;;;9.57;;
54197;SDS011;40105;52.366;17.000;2023-04-09T13:04:20;16.70;;;9.97;;
54197;SDS011;40105;52.366;17.000;2023-04-09T13:06:45;16.25;;;8.90;;
54197;SDS011;40105;52.366;17.000;2023-04-09T13:09:10;16.37;;;9.23;;
54197;SDS011;40105;52.366;17.000;2023-04-09T13:11:36;14.90;;;9.40;;
54197;SDS011;40105;52.366;17.000;2023-04-09T13:14:01;19.70;;;9.23;;
54197;SDS011;40105;52.366;17.000;2023-04-09T13:16:26;13.27;;;8.20;;
54197;SDS011;40105;52.366;17.000;2023-04-09T13:18:52;15.45;;;9.52;;
54197;SDS011;40105;52.366;17.000;2023-04-09T13:21:17;16.55;;;9.13;;
54197;SDS011;40105;52.366;17.000;2023-04-09T13:23:43;15.15;;;9.75;;
54197;SDS011;40105;52.366;17.000;2023-04-09T13:26:08;18.13;;;9.18;;
54197;SDS011;40105;52.366;17.000;2023-04-09T13:28:33;19.63;;;10.17;;
54197;SDS011;40105;52.366;17.000;2023-04-09T13:30:58;15.40;;;8.97;;
54197;SDS011;40105;52.366;17.000;2023-04-09T13:33:23;13.67;;;8.33;;
54197;SDS011;40105;52.366;17.000;2023-04-09T13:35:48;15.30;;;8.67;;
54197;SDS011;40105;52.366;17.000;2023-04-09T13:38:15;13.55;;;8.57;;
54197;SDS011;40105;52.366;17.000;2023-04-09T13:40:40;14.83;;;7.53;;
54197;SDS011;40105;52.366;17.000;2023-04-09T13:43:05;16.23;;;8.38;;
54197;SDS011;40105;52.366;17.000;2023-04-09T13:45:30;16.63;;;8.40;;
54197;SDS011;40105;52.366;17.000;2023-04-09T13:47:56;15.07;;;7.97;;
54197;SDS011;40105;52.366;17.000;2023-04-09T13:50:21;13.38;;;8.15;;
54197;SDS011;40105;52.366;17.000;2023-04-09T13:52:46;19.37;;;10.23;;
54197;SDS011;40105;52.366;17.000;2023-04-09T13:55:12;17.95;;;10.90;;
54197;SDS011;40105;52.366;17.000;2023-04-09T13:57:37;16.70;;;8.67;;
54197;SDS011;40105;52.366;17.000;2023-04-09T14:00:02;17.30;;;9.77;;
54197;SDS011;40105;52.366;17.000;2023-04-09T14:02:29;16.15;;;9.43;;
54197;SDS011;40105;52.366;17.000;2023-04-09T14:04:54;15.23;;;9.10;;
54197;SDS011;40105;52.366;17.000;2023-04-09T14:07:20;18.20;;;11.02;;
54197;SDS011;40105;52.366;17.000;2023-04-09T14:09:46;45.00;;;24.97;;
54197;SDS011;40105;52.366;17.000;2023-04-09T14:12:11;29.93;;;19.43;;
54197;SDS011;40105;52.366;17.000;2023-04-09T14:14:36;18.42;;;10.13;;
54197;SDS011;40105;52.366;17.000;2023-04-09T14:17:01;21.50;;;12.97;;
54197;SDS011;40105;52.366;17.000;2023-04-09T14:19:26;21.67;;;10.97;;
54197;SDS011;40105;52.366;17.000;2023-04-09T14:21:52;23.23;;;12.80;;